createdAt,value
2017-06-28T00:01:44.355Z,5.63
2017-06-28T00:04:10.702Z,5.90
2017-06-28T00:06:37.358Z,5.20
2017-06-28T00:09:03.744Z,5.80
2017-06-28T00:11:30.077Z,5.87
2017-06-28T00:13:56.432Z,5.47
2017-06-28T00:16:22.820Z,5.90
2017-06-28T00:18:50.260Z,6.17
2017-06-28T00:21:17.332Z,6.40
2017-06-28T00:23:44.401Z,6.10
2017-06-28T00:26:10.758Z,7.17
2017-06-28T00:28:37.107Z,5.53
2017-06-28T00:31:03.728Z,6.10
2017-06-28T00:33:30.111Z,6.00
2017-06-28T00:35:56.445Z,5.80
2017-06-28T00:38:22.801Z,6.53
2017-06-28T00:40:49.147Z,6.60
2017-06-28T00:43:15.737Z,6.40
2017-06-28T00:45:42.066Z,6.17
2017-06-28T00:48:08.432Z,6.13
2017-06-28T00:50:34.789Z,6.17
2017-06-28T00:53:01.180Z,6.40
2017-06-28T00:55:27.875Z,5.63
2017-06-28T00:57:54.247Z,6.13
2017-06-28T01:02:53.819Z,5.23
2017-06-28T01:05:27.229Z,6.07
2017-06-28T01:07:53.954Z,5.63
2017-06-28T01:10:20.359Z,5.03
2017-06-28T01:12:46.748Z,5.87
2017-06-28T01:15:13.159Z,6.00
2017-06-28T01:17:39.548Z,6.03
2017-06-28T01:20:06.295Z,5.33
2017-06-28T01:22:32.685Z,5.90
2017-06-28T01:24:59.032Z,5.43
2017-06-28T01:27:25.414Z,5.83
2017-06-28T01:29:51.797Z,5.87
2017-06-28T01:32:18.656Z,5.27
2017-06-28T01:34:45.076Z,5.93
2017-06-28T01:37:11.460Z,4.53
2017-06-28T01:39:37.838Z,5.80
2017-06-28T01:42:04.248Z,5.00
2017-06-28T01:44:30.974Z,5.67
2017-06-28T01:46:57.378Z,4.63
2017-06-28T01:49:23.773Z,5.80
2017-06-28T01:51:50.187Z,5.10
2017-06-28T01:54:16.626Z,5.13
2017-06-28T01:56:43.317Z,4.67
2017-06-28T01:59:09.684Z,5.97
2017-06-28T02:01:36.050Z,5.83
2017-06-28T02:04:02.470Z,5.30
2017-06-28T02:06:29.584Z,5.13
2017-06-28T02:08:56.364Z,4.93
2017-06-28T02:11:22.720Z,5.20
2017-06-28T02:13:49.108Z,5.20
2017-06-28T02:16:15.464Z,4.77
2017-06-28T02:18:41.852Z,5.17
2017-06-28T02:21:08.501Z,4.93
2017-06-28T02:23:34.873Z,5.20
2017-06-28T02:26:01.241Z,5.40
2017-06-28T02:28:27.636Z,5.30
2017-06-28T02:30:53.995Z,6.13
2017-06-28T02:33:20.673Z,5.70
2017-06-28T02:35:47.048Z,4.77
2017-06-28T02:38:13.407Z,5.33
2017-06-28T02:40:39.798Z,5.77
2017-06-28T02:43:06.164Z,6.63
2017-06-28T02:45:32.909Z,5.90
2017-06-28T02:47:59.265Z,5.57
2017-06-28T02:50:26.359Z,5.47
2017-06-28T02:52:52.719Z,5.23
2017-06-28T02:55:19.103Z,5.33
2017-06-28T02:57:45.784Z,6.27
2017-06-28T03:00:12.191Z,5.73
2017-06-28T03:02:38.517Z,5.33
2017-06-28T03:05:04.888Z,4.90
2017-06-28T03:07:31.288Z,4.70
2017-06-28T03:09:57.947Z,4.87
2017-06-28T03:12:24.292Z,6.30
2017-06-28T03:14:50.715Z,6.10
2017-06-28T03:17:17.844Z,5.30
2017-06-28T03:19:44.211Z,5.53
2017-06-28T03:22:10.577Z,6.13
2017-06-28T03:24:37.234Z,5.33
2017-06-28T03:27:03.622Z,4.90
2017-06-28T03:29:30.045Z,5.83
2017-06-28T03:31:56.776Z,6.10
2017-06-28T03:34:23.852Z,5.90
2017-06-28T03:36:50.217Z,5.63
2017-06-28T03:39:16.626Z,5.17
2017-06-28T03:41:43.011Z,5.23
2017-06-28T03:44:09.728Z,5.20
2017-06-28T03:46:36.084Z,5.60
2017-06-28T03:49:02.433Z,5.30
2017-06-28T03:51:28.824Z,5.33
2017-06-28T03:53:55.193Z,5.53
2017-06-28T03:56:21.889Z,4.80
2017-06-28T03:58:48.973Z,4.90
2017-06-28T04:01:15.357Z,4.90
2017-06-28T04:03:41.745Z,5.50
2017-06-28T04:06:08.109Z,5.10
2017-06-28T04:08:34.789Z,5.20
2017-06-28T04:11:01.153Z,5.00
2017-06-28T04:13:27.523Z,5.30
2017-06-28T04:15:53.876Z,5.30
2017-06-28T04:18:20.225Z,4.90
2017-06-28T04:20:46.906Z,4.97
2017-06-28T04:23:13.356Z,5.83
2017-06-28T04:25:39.717Z,5.60
2017-06-28T04:28:06.093Z,4.93
2017-06-28T04:30:32.440Z,5.50
2017-06-28T04:32:59.938Z,6.03
2017-06-28T04:35:26.296Z,5.27
2017-06-28T04:37:52.657Z,5.00
2017-06-28T04:40:19.781Z,5.20
2017-06-28T04:42:46.137Z,5.50
2017-06-28T04:45:12.830Z,5.20
2017-06-28T04:47:39.197Z,6.00
2017-06-28T04:50:05.559Z,5.53
2017-06-28T04:52:31.942Z,5.83
2017-06-28T04:54:58.316Z,5.20
2017-06-28T04:57:24.990Z,4.50
2017-06-28T04:59:51.316Z,5.73
2017-06-28T05:02:17.690Z,5.20
2017-06-28T05:04:44.780Z,4.73
2017-06-28T05:07:11.140Z,5.90
2017-06-28T05:09:37.848Z,5.00
2017-06-28T05:12:04.211Z,5.70
2017-06-28T05:14:30.586Z,4.77
2017-06-28T05:16:56.944Z,4.53
2017-06-28T05:19:23.269Z,6.17
2017-06-28T05:21:50.025Z,5.17
2017-06-28T05:24:16.409Z,5.40
2017-06-28T05:26:42.750Z,4.83
2017-06-28T05:29:09.091Z,5.30
2017-06-28T05:31:35.421Z,6.17
2017-06-28T05:34:02.098Z,4.90
2017-06-28T05:36:29.181Z,5.80
2017-06-28T05:38:55.533Z,5.70
2017-06-28T05:41:21.929Z,4.70
2017-06-28T05:43:48.258Z,5.93
2017-06-28T05:46:15.673Z,5.57
2017-06-28T05:48:42.000Z,5.80
2017-06-28T05:51:08.362Z,5.23
2017-06-28T05:53:34.744Z,5.53
2017-06-28T05:56:01.074Z,5.00
2017-06-28T05:58:27.686Z,5.67
2017-06-28T06:00:54.041Z,5.00
2017-06-28T06:03:20.358Z,5.90
2017-06-28T06:05:46.703Z,5.60
2017-06-28T06:08:13.126Z,5.97
2017-06-28T06:10:39.798Z,5.70
2017-06-28T06:13:06.111Z,6.13
2017-06-28T06:15:32.454Z,6.50
2017-06-28T06:17:58.866Z,5.50
2017-06-28T06:20:25.226Z,6.77
2017-06-28T06:22:52.668Z,5.57
2017-06-28T06:25:19.023Z,5.33
2017-06-28T06:27:46.128Z,6.80
2017-06-28T06:30:12.488Z,5.40
2017-06-28T06:32:38.955Z,5.97
2017-06-28T06:35:05.598Z,6.57
2017-06-28T06:37:31.928Z,5.43
2017-06-28T06:39:58.296Z,5.57
2017-06-28T06:42:24.659Z,5.70
2017-06-28T06:44:51.713Z,5.23
2017-06-28T06:47:18.419Z,5.93
2017-06-28T06:49:44.747Z,5.13
2017-06-28T06:52:11.061Z,6.03
2017-06-28T06:54:37.414Z,5.70
2017-06-28T06:57:04.545Z,6.03
2017-06-28T06:59:31.209Z,6.07
2017-06-28T07:01:57.533Z,5.90
2017-06-28T07:04:23.903Z,5.50
2017-06-28T07:06:50.251Z,6.80
2017-06-28T07:09:16.595Z,7.17
2017-06-28T07:11:43.202Z,6.67
2017-06-28T07:14:09.515Z,6.20
2017-06-28T07:16:35.846Z,6.30
2017-06-28T07:19:02.186Z,6.97
2017-06-28T07:21:28.512Z,6.07
2017-06-28T07:23:55.203Z,6.97
2017-06-28T07:26:21.539Z,6.40
2017-06-28T07:28:47.859Z,7.37
2017-06-28T07:31:14.931Z,6.40
2017-06-28T07:33:41.311Z,6.83
2017-06-28T07:36:07.970Z,7.00
2017-06-28T07:38:34.313Z,7.00
2017-06-28T07:41:00.738Z,7.10
2017-06-28T07:43:27.095Z,7.53
2017-06-28T07:45:53.443Z,6.23
2017-06-28T07:48:20.136Z,7.20
2017-06-28T07:50:46.447Z,7.57
2017-06-28T07:53:12.787Z,6.57
2017-06-28T07:55:39.129Z,6.93
2017-06-28T07:58:05.457Z,7.60
2017-06-28T08:00:32.095Z,6.60
2017-06-28T08:02:58.415Z,6.80
2017-06-28T08:05:24.751Z,7.23
2017-06-28T08:07:51.850Z,6.30
2017-06-28T08:10:18.183Z,7.20
2017-06-28T08:12:44.512Z,6.30
2017-06-28T08:15:11.133Z,6.90
2017-06-28T08:17:37.450Z,6.87
2017-06-28T08:20:03.763Z,6.60
2017-06-28T08:22:30.459Z,6.60
2017-06-28T08:24:57.922Z,6.90
2017-06-28T08:27:25.001Z,7.37
2017-06-28T08:29:51.710Z,5.90
2017-06-28T08:32:18.158Z,6.80
2017-06-28T08:34:44.542Z,5.77
2017-06-28T08:37:10.961Z,5.57
2017-06-28T08:39:37.300Z,5.93
2017-06-28T08:42:03.981Z,4.40
2017-06-28T08:44:30.307Z,4.67
2017-06-28T08:46:57.757Z,4.23
2017-06-28T08:49:24.139Z,3.40
2017-06-28T08:51:50.501Z,2.77
2017-06-28T08:54:17.118Z,2.70
2017-06-28T08:56:43.460Z,2.33
2017-06-28T08:59:09.833Z,2.17
2017-06-28T09:01:36.326Z,1.83
2017-06-28T09:04:02.737Z,2.27
2017-06-28T09:06:29.402Z,2.60
2017-06-28T09:08:55.942Z,2.47
2017-06-28T09:11:22.276Z,2.50
2017-06-28T09:13:49.377Z,2.63
2017-06-28T09:16:15.716Z,2.10
2017-06-28T09:18:42.359Z,2.80
2017-06-28T09:21:08.713Z,2.30
2017-06-28T09:23:35.785Z,2.40
2017-06-28T09:26:02.112Z,2.60
2017-06-28T09:28:28.458Z,2.43
2017-06-28T09:30:55.062Z,2.50
2017-06-28T09:33:22.189Z,2.50
2017-06-28T09:35:49.317Z,2.63
2017-06-28T09:38:15.661Z,2.60
2017-06-28T09:40:42.007Z,3.37
2017-06-28T09:43:09.490Z,2.93
2017-06-28T09:45:35.888Z,3.00
2017-06-28T09:48:02.249Z,2.60
2017-06-28T09:50:28.648Z,2.57
2017-06-28T09:52:54.999Z,2.63
2017-06-28T09:55:21.662Z,2.53
2017-06-28T09:57:48.013Z,3.03
2017-06-28T10:00:14.403Z,2.73
2017-06-28T10:02:40.754Z,3.27
2017-06-28T10:05:07.155Z,3.23
2017-06-28T10:07:33.871Z,2.73
2017-06-28T10:10:00.242Z,2.40
2017-06-28T10:12:26.606Z,2.70
2017-06-28T10:14:53.001Z,2.87
2017-06-28T10:17:19.346Z,3.30
2017-06-28T10:19:46.020Z,2.60
2017-06-28T10:22:12.356Z,2.93
2017-06-28T10:24:38.673Z,2.83
2017-06-28T10:27:04.992Z,2.90
2017-06-28T10:29:31.323Z,2.97
2017-06-28T10:31:57.974Z,2.47
2017-06-28T10:34:24.333Z,2.67
2017-06-28T10:36:50.692Z,2.70
2017-06-28T10:39:17.113Z,2.50
2017-06-28T10:41:43.446Z,3.00
2017-06-28T10:44:10.077Z,2.77
2017-06-28T10:46:36.450Z,2.70
2017-06-28T10:49:02.792Z,2.50
2017-06-28T10:51:29.131Z,2.53
2017-06-28T10:53:56.236Z,2.70
2017-06-28T10:56:22.987Z,2.77
2017-06-28T10:58:49.344Z,2.33
2017-06-28T11:01:15.702Z,2.50
2017-06-28T11:03:42.063Z,2.37
2017-06-28T11:06:08.403Z,2.67
2017-06-28T11:08:35.008Z,2.23
2017-06-28T11:11:01.402Z,2.03
2017-06-28T11:13:28.521Z,3.30
2017-06-28T11:15:54.859Z,2.47
2017-06-28T11:18:21.233Z,2.20
2017-06-28T11:20:47.949Z,2.50
2017-06-28T11:23:15.082Z,2.20
2017-06-28T11:25:41.426Z,3.17
2017-06-28T11:28:08.553Z,2.57
2017-06-28T11:30:34.914Z,3.23
2017-06-28T11:33:01.617Z,3.00
2017-06-28T11:35:27.938Z,3.27
2017-06-28T11:37:54.317Z,3.47
2017-06-28T11:40:20.692Z,3.10
2017-06-28T11:42:47.027Z,2.93
2017-06-28T11:45:13.892Z,3.27
2017-06-28T11:47:40.974Z,3.10
2017-06-28T11:50:07.351Z,3.20
2017-06-28T11:52:33.763Z,2.63
2017-06-28T11:55:00.731Z,3.40
2017-06-28T11:57:28.177Z,3.10
2017-06-28T11:59:54.838Z,3.33
2017-06-28T12:02:21.932Z,3.30
2017-06-28T12:04:48.608Z,3.00
2017-06-28T12:07:14.953Z,2.70
2017-06-28T12:09:41.283Z,2.20
2017-06-28T12:12:08.407Z,3.30
2017-06-28T12:14:34.771Z,4.00
2017-06-28T12:17:01.405Z,3.90
2017-06-28T12:19:27.733Z,2.47
2017-06-28T12:21:54.807Z,4.20
2017-06-28T12:24:21.139Z,3.97
2017-06-28T12:26:47.517Z,3.67
2017-06-28T12:29:14.258Z,3.30
2017-06-28T12:31:41.324Z,3.47
2017-06-28T12:34:07.751Z,3.47
2017-06-28T12:36:34.095Z,3.30
2017-06-28T12:39:00.450Z,3.47
2017-06-28T12:41:27.092Z,3.33
2017-06-28T12:43:53.421Z,3.27
2017-06-28T12:46:19.747Z,3.83
2017-06-28T12:48:46.081Z,3.70
2017-06-28T12:51:12.425Z,3.43
2017-06-28T12:53:39.065Z,3.27
2017-06-28T12:56:05.396Z,3.33
2017-06-28T12:58:31.707Z,2.97
2017-06-28T13:00:58.082Z,3.20
2017-06-28T13:03:24.456Z,4.00
2017-06-28T13:05:51.115Z,3.43
2017-06-28T13:08:17.515Z,4.30
2017-06-28T13:10:51.035Z,3.70
2017-06-28T13:13:17.381Z,3.77
2017-06-28T13:15:43.717Z,3.07
2017-06-28T13:18:10.093Z,2.27
2017-06-28T13:20:36.420Z,2.53
2017-06-28T13:23:03.209Z,2.80
2017-06-28T13:25:29.529Z,2.83
2017-06-28T13:27:55.867Z,3.13
2017-06-28T13:30:22.191Z,3.40
2017-06-28T13:32:48.569Z,3.30
2017-06-28T13:35:15.267Z,3.07
2017-06-28T13:37:41.600Z,2.50
2017-06-28T13:40:08.706Z,3.50
2017-06-28T13:42:35.081Z,3.83
2017-06-28T13:45:02.142Z,2.73
2017-06-28T13:47:28.998Z,3.40
2017-06-28T13:49:55.381Z,2.90
2017-06-28T13:52:21.715Z,3.23
2017-06-28T13:54:48.048Z,3.30
2017-06-28T13:57:14.399Z,3.00
2017-06-28T13:59:41.789Z,3.20
2017-06-28T14:02:08.155Z,3.00
2017-06-28T14:04:34.494Z,3.33
2017-06-28T14:07:01.597Z,3.10
2017-06-28T14:09:27.958Z,3.00
2017-06-28T14:11:54.819Z,2.83
2017-06-28T14:14:21.862Z,2.40
2017-06-28T14:16:48.951Z,2.13
2017-06-28T14:19:16.194Z,2.70
2017-06-28T14:21:42.514Z,2.47
2017-06-28T14:24:08.872Z,2.80
2017-06-28T14:26:35.235Z,2.33
2017-06-28T14:29:01.607Z,2.80
2017-06-28T14:31:27.917Z,2.63
2017-06-28T14:33:54.571Z,1.90
2017-06-28T14:36:20.919Z,2.70
2017-06-28T14:38:47.262Z,2.30
2017-06-28T14:41:13.631Z,1.97
2017-06-28T14:43:40.700Z,2.17
2017-06-28T14:46:07.333Z,2.10
2017-06-28T14:48:33.685Z,2.83
2017-06-28T14:51:00.079Z,3.13
2017-06-28T14:53:27.194Z,2.63
2017-06-28T14:55:53.535Z,2.80
2017-06-28T14:58:20.192Z,2.83
2017-06-28T15:00:46.524Z,3.00
2017-06-28T15:03:13.689Z,2.47
2017-06-28T15:05:40.057Z,2.37
2017-06-28T15:08:06.410Z,2.30
2017-06-28T15:10:33.065Z,2.60
2017-06-28T15:12:59.431Z,2.40
2017-06-28T15:15:25.773Z,2.13
2017-06-28T15:17:52.184Z,2.23
2017-06-28T15:20:18.537Z,2.30
2017-06-28T15:22:45.183Z,2.30
2017-06-28T15:25:11.515Z,2.57
2017-06-28T15:27:37.857Z,2.00
2017-06-28T15:30:04.214Z,1.97
2017-06-28T15:32:30.559Z,2.50
2017-06-28T15:34:57.247Z,2.27
2017-06-28T15:37:23.552Z,2.23
2017-06-28T15:39:49.873Z,2.03
2017-06-28T15:42:16.226Z,2.30
2017-06-28T15:44:49.449Z,2.33
2017-06-28T15:47:16.176Z,2.57
2017-06-28T15:49:42.535Z,2.83
2017-06-28T15:52:08.891Z,2.70
2017-06-28T15:54:35.283Z,2.80
2017-06-28T15:57:01.678Z,2.60
2017-06-28T15:59:28.321Z,2.27
2017-06-28T16:01:54.675Z,2.97
2017-06-28T16:04:21.041Z,3.30
2017-06-28T16:06:47.382Z,2.17
2017-06-28T16:09:13.756Z,2.83
2017-06-28T16:11:41.146Z,3.70
2017-06-28T16:14:07.514Z,3.50
2017-06-28T16:16:33.848Z,3.53
2017-06-28T16:19:00.356Z,3.73
2017-06-28T16:21:26.738Z,3.43
2017-06-28T16:23:54.143Z,3.40
2017-06-28T16:26:20.477Z,3.80
2017-06-28T16:28:46.872Z,3.50
2017-06-28T16:31:13.270Z,4.30
2017-06-28T16:33:39.687Z,4.00
2017-06-28T16:36:06.345Z,3.67
2017-06-28T16:38:35.279Z,4.23
2017-06-28T16:41:01.664Z,4.30
2017-06-28T16:43:27.945Z,3.90
2017-06-28T16:45:54.363Z,5.33
2017-06-28T16:48:21.064Z,4.57
2017-06-28T16:50:47.460Z,5.00
2017-06-28T16:53:13.820Z,6.07
2017-06-28T16:55:40.983Z,5.73
2017-06-28T16:58:07.350Z,6.50
2017-06-28T17:00:34.140Z,4.57
2017-06-28T17:03:01.215Z,5.30
2017-06-28T17:05:27.597Z,4.73
2017-06-28T17:07:54.004Z,5.40
2017-06-28T17:10:20.322Z,4.23
2017-06-28T17:12:46.996Z,4.20
2017-06-28T17:15:14.731Z,4.43
2017-06-28T17:17:41.166Z,4.50
2017-06-28T17:20:07.505Z,4.77
2017-06-28T17:22:33.911Z,4.77
2017-06-28T17:25:00.563Z,4.23
2017-06-28T17:27:26.900Z,4.50
2017-06-28T17:29:53.301Z,4.57
2017-06-28T17:32:19.678Z,5.10
2017-06-28T17:34:46.774Z,4.37
2017-06-28T17:37:13.575Z,4.20
2017-06-28T17:39:42.158Z,3.80
2017-06-28T17:42:09.274Z,4.10
2017-06-28T17:44:35.603Z,4.43
2017-06-28T17:47:01.967Z,3.77
2017-06-28T17:49:28.350Z,3.60
2017-06-28T17:51:54.699Z,3.57
2017-06-28T17:54:21.084Z,4.10
2017-06-28T17:56:47.507Z,4.50
2017-06-28T17:59:13.863Z,3.93
2017-06-28T18:01:40.241Z,4.73
2017-06-28T18:04:07.328Z,4.00
2017-06-28T18:06:34.016Z,4.60
2017-06-28T18:09:01.252Z,4.30
2017-06-28T18:11:28.350Z,3.80
2017-06-28T18:13:54.749Z,4.70
2017-06-28T18:16:21.858Z,3.70
2017-06-28T18:18:48.311Z,3.87
2017-06-28T18:21:14.735Z,3.20
2017-06-28T18:23:41.491Z,3.90
2017-06-28T18:26:07.888Z,3.20
2017-06-28T18:28:34.287Z,3.50
2017-06-28T18:31:00.693Z,3.53
2017-06-28T18:33:27.825Z,2.67
2017-06-28T18:35:55.002Z,2.97
2017-06-28T18:38:21.431Z,2.53
2017-06-28T18:40:48.890Z,3.30
2017-06-28T18:43:15.311Z,2.90
2017-06-28T18:48:15.552Z,2.20
2017-06-28T18:50:42.028Z,3.00
2017-06-28T18:53:08.487Z,2.77
2017-06-28T18:55:35.626Z,3.03
2017-06-28T18:58:02.311Z,2.77
2017-06-28T19:00:28.708Z,3.00
2017-06-28T19:02:55.133Z,3.20
2017-06-28T19:05:21.638Z,2.50
2017-06-28T19:07:48.066Z,2.00
2017-06-28T19:10:14.503Z,2.80
2017-06-28T19:12:40.980Z,2.50
2017-06-28T19:15:08.009Z,2.60
2017-06-28T19:17:34.537Z,3.27
2017-06-28T19:20:01.226Z,3.70
2017-06-28T19:22:27.715Z,3.33
2017-06-28T19:24:54.103Z,2.97
2017-06-28T19:27:20.533Z,3.30
2017-06-28T19:29:46.902Z,2.80
2017-06-28T19:32:13.598Z,4.10
2017-06-28T19:34:40.028Z,3.10
2017-06-28T19:37:06.419Z,3.20
2017-06-28T19:39:33.601Z,2.60
2017-06-28T19:42:00.005Z,2.90
2017-06-28T19:44:27.116Z,3.07
2017-06-28T19:46:53.500Z,3.10
2017-06-28T19:49:20.163Z,2.90
2017-06-28T19:51:46.547Z,2.70
2017-06-28T19:54:13.720Z,1.90
2017-06-28T19:56:40.123Z,2.30
2017-06-28T19:59:07.294Z,2.93
2017-06-28T20:01:34.112Z,3.00
2017-06-28T20:04:01.221Z,2.30
2017-06-28T20:06:27.616Z,2.60
2017-06-28T20:08:54.039Z,2.43
2017-06-28T20:11:20.395Z,2.37
2017-06-28T20:13:47.071Z,2.60
2017-06-28T20:16:13.506Z,2.97
2017-06-28T20:18:39.923Z,2.60
2017-06-28T20:21:06.308Z,3.07
2017-06-28T20:23:32.657Z,2.27
2017-06-28T20:25:59.059Z,2.20
2017-06-28T20:28:25.390Z,3.23
2017-06-28T20:30:52.098Z,2.90
2017-06-28T20:33:18.440Z,2.80
2017-06-28T20:35:45.509Z,3.23
2017-06-28T20:38:11.893Z,2.77
2017-06-28T20:40:38.990Z,3.00
2017-06-28T20:43:05.346Z,3.00
2017-06-28T20:45:31.713Z,2.73
2017-06-28T20:47:58.556Z,3.53
2017-06-28T20:50:24.922Z,3.00
2017-06-28T20:52:51.279Z,2.70
2017-06-28T20:55:17.658Z,3.30
2017-06-28T20:57:44.034Z,2.57
2017-06-28T21:00:10.366Z,3.43
2017-06-28T21:02:36.700Z,3.13
2017-06-28T21:05:03.342Z,3.83
2017-06-28T21:07:29.703Z,3.03
2017-06-28T21:09:58.775Z,4.30
2017-06-28T21:12:25.161Z,3.30
2017-06-28T21:14:51.541Z,3.10
2017-06-28T21:17:18.037Z,3.53
2017-06-28T21:19:44.397Z,3.23
2017-06-28T21:22:11.044Z,4.63
2017-06-28T21:24:37.402Z,2.60
2017-06-28T21:27:03.756Z,2.43
2017-06-28T21:29:30.110Z,2.97
2017-06-28T21:31:56.477Z,3.10
2017-06-28T21:34:22.821Z,2.87
2017-06-28T21:36:49.113Z,3.13
2017-06-28T21:39:15.873Z,2.80
2017-06-28T21:41:42.243Z,2.97
2017-06-28T21:44:08.578Z,2.30
2017-06-28T21:46:34.961Z,2.53
2017-06-28T21:49:02.064Z,2.87
2017-06-28T21:51:28.396Z,3.27
2017-06-28T21:53:54.729Z,2.73
2017-06-28T21:56:21.363Z,3.30
2017-06-28T21:58:47.692Z,2.87
2017-06-28T22:01:14.783Z,2.87
2017-06-28T22:03:41.155Z,3.13
2017-06-28T22:06:07.497Z,3.30
2017-06-28T22:08:33.848Z,3.87
2017-06-28T22:11:00.996Z,3.20
2017-06-28T22:13:27.726Z,3.27
2017-06-28T22:15:54.089Z,3.00
2017-06-28T22:18:32.803Z,2.60
2017-06-28T22:20:59.170Z,2.80
2017-06-28T22:23:26.688Z,3.20
2017-06-28T22:25:53.092Z,2.63
2017-06-28T22:28:19.447Z,3.43
2017-06-28T22:30:45.851Z,3.10
2017-06-28T22:33:12.210Z,2.77
2017-06-28T22:35:38.534Z,3.27
2017-06-28T22:38:05.629Z,3.47
2017-06-28T22:40:32.315Z,2.83
2017-06-28T22:42:59.406Z,2.83
2017-06-28T22:45:25.762Z,3.40
2017-06-28T22:47:52.131Z,3.40
2017-06-28T22:50:18.504Z,3.30
2017-06-28T22:52:44.859Z,3.17
2017-06-28T22:55:11.224Z,3.60
2017-06-28T22:57:37.922Z,3.90
2017-06-28T23:00:04.282Z,3.80
2017-06-28T23:02:31.391Z,3.50
2017-06-28T23:04:57.759Z,3.90
2017-06-28T23:07:24.125Z,4.10
2017-06-28T23:09:50.490Z,4.63
2017-06-28T23:12:16.841Z,3.90
2017-06-28T23:14:44.240Z,3.20
2017-06-28T23:17:10.587Z,3.73
2017-06-28T23:19:36.930Z,4.17
2017-06-28T23:22:03.328Z,4.17
2017-06-28T23:24:29.689Z,4.70
2017-06-28T23:26:56.069Z,5.00
2017-06-28T23:29:22.452Z,4.57
2017-06-28T23:31:49.095Z,5.37
2017-06-28T23:34:15.764Z,5.77
2017-06-28T23:36:42.124Z,5.43
2017-06-28T23:39:08.465Z,4.63
2017-06-28T23:41:34.813Z,5.57
2017-06-28T23:44:01.176Z,4.80
2017-06-28T23:49:00.859Z,5.40
2017-06-28T23:51:27.211Z,5.60
2017-06-28T23:53:54.283Z,6.53
2017-06-28T23:56:20.552Z,5.27
2017-06-28T23:58:46.903Z,5.40
